RCSS

Taipei/Songshan

Airport
ICAO code
RCSS
Summary
ICAO Region
APAC
ICAO Territory
Location

Songshan District, Taipei,

Coordinates
25° 4' 10" N , 121° 33' 7" E
KCC
Cfa
Metar
Observation
RCSS 142100Z 18003KT 150V210 9999 FEW015 28/23 Q1005 NOSIG RMK A2970
Station
Sungshan / Taipei
Date/Time
2022-08-14 21:00:00
Wind direction
180°
Wind speed
03 kts
Lowest cloud amount
few clouds
Temperature
28°C
Dew point
23°C
Humidity
74%
QNH
1005 hPa
Weather condition
n/a

Description

Taipei Songshan Airport is a midsize commercial airport and military airbase located in Songshan, Taipei, Taiwan. It is one of three Taiwanese airports with regular international flights.

Climatology

Humid “subtropical” climate (Köppen climate classification Cfa) - characterized by hot, humid summers and cool winters. Significant amounts of precipitation occur in all seasons in most areas. Winter rainfall is associated with large storms.

Runways

Designator Length Width Surface Rops
10/28 2605 60 ASP Yes/Yes

Airport map

Aerial View

SKYbrary Partners:

Safety knowledge contributed by: